createdAt,value
2023-04-10T00:00:10.030Z,13.93
2023-04-10T00:02:38.274Z,15.60
2023-04-10T00:05:07.929Z,14.30
2023-04-10T00:07:35.825Z,14.98
2023-04-10T00:10:03.123Z,15.77
2023-04-10T00:12:30.804Z,14.93
2023-04-10T00:14:58.338Z,15.30
2023-04-10T00:17:25.854Z,14.73
2023-04-10T00:19:53.169Z,17.23
2023-04-10T00:22:20.821Z,13.77
2023-04-10T00:24:48.170Z,16.27
2023-04-10T00:27:15.465Z,13.32
2023-04-10T00:29:42.822Z,13.57
2023-04-10T00:32:10.379Z,14.93
2023-04-10T00:34:37.725Z,13.37
2023-04-10T00:37:05.177Z,14.60
2023-04-10T00:39:32.414Z,14.98
2023-04-10T00:41:59.744Z,14.65
2023-04-10T00:44:27.284Z,14.27
2023-04-10T00:46:54.563Z,14.90
2023-04-10T00:49:21.951Z,17.73
2023-04-10T00:51:49.759Z,14.45
2023-04-10T00:54:17.240Z,13.27
2023-04-10T00:56:47.049Z,12.32
2023-04-10T00:59:14.530Z,14.60
2023-04-10T01:01:42.019Z,12.68
2023-04-10T01:04:09.770Z,12.40
2023-04-10T01:06:40.720Z,12.45
2023-04-10T01:09:14.055Z,12.57
2023-04-10T01:11:47.725Z,14.07
2023-04-10T01:14:31.890Z,13.27
2023-04-10T01:17:09.557Z,14.80
2023-04-10T01:20:01.081Z,12.45
2023-04-10T01:22:36.701Z,12.35
2023-04-10T01:25:22.798Z,11.53
2023-04-10T01:27:50.562Z,11.43
2023-04-10T01:30:19.282Z,12.02
2023-04-10T01:32:46.738Z,11.95
2023-04-10T01:35:15.942Z,11.82
2023-04-10T01:37:44.275Z,12.20
2023-04-10T01:40:15.442Z,11.73
2023-04-10T01:42:51.719Z,11.40
2023-04-10T01:45:21.548Z,12.75
2023-04-10T01:47:51.560Z,10.10
2023-04-10T01:50:19.594Z,10.53
2023-04-10T01:52:47.591Z,13.25
2023-04-10T01:55:21.670Z,14.93
2023-04-10T01:58:01.750Z,11.15
2023-04-10T02:00:29.463Z,9.85
2023-04-10T02:02:58.431Z,10.73
2023-04-10T02:05:29.273Z,9.45
2023-04-10T02:08:01.418Z,10.48
2023-04-10T02:10:37.220Z,8.70
2023-04-10T02:13:08.536Z,12.32
2023-04-10T02:15:36.979Z,9.63
2023-04-10T02:18:04.890Z,8.82
2023-04-10T02:20:32.453Z,8.73
2023-04-10T02:23:03.842Z,9.32
2023-04-10T02:25:35.003Z,8.77
2023-04-10T02:28:05.565Z,9.03
2023-04-10T02:30:35.878Z,8.40
2023-04-10T02:33:03.382Z,10.20
2023-04-10T02:35:32.078Z,11.20
2023-04-10T02:37:59.405Z,8.15
2023-04-10T02:40:27.171Z,9.33
2023-04-10T02:43:10.015Z,8.30
2023-04-10T02:45:37.308Z,8.68
2023-04-10T02:48:06.966Z,8.32
2023-04-10T02:50:34.860Z,8.13
2023-04-10T02:53:02.197Z,10.17
2023-04-10T02:55:29.604Z,7.90
2023-04-10T02:57:56.852Z,8.57
2023-04-10T03:00:24.188Z,8.93
2023-04-10T03:03:07.898Z,8.32
2023-04-10T03:05:46.960Z,7.87
2023-04-10T03:08:14.872Z,8.55
2023-04-10T03:10:44.696Z,8.30
2023-04-10T03:13:11.972Z,8.02
2023-04-10T03:15:39.341Z,8.25
2023-04-10T03:18:06.910Z,9.27
2023-04-10T03:20:34.183Z,8.13
2023-04-10T03:23:01.595Z,7.60
2023-04-10T03:25:28.948Z,9.52
2023-04-10T03:27:56.436Z,8.05
2023-04-10T03:30:24.030Z,8.33
2023-04-10T03:32:51.236Z,7.85
2023-04-10T03:35:18.618Z,9.80
2023-04-10T03:37:46.000Z,7.80
2023-04-10T03:40:13.389Z,7.82
2023-04-10T03:42:41.163Z,8.10
2023-04-10T03:45:08.784Z,7.65
2023-04-10T03:47:36.159Z,8.32
2023-04-10T03:50:06.457Z,8.57
2023-04-10T03:52:41.385Z,9.57
2023-04-10T03:55:14.453Z,7.90
2023-04-10T03:57:42.212Z,8.52
2023-04-10T04:00:10.387Z,10.38
2023-04-10T04:02:52.923Z,10.65
2023-04-10T04:05:49.242Z,8.68
2023-04-10T04:08:28.352Z,8.70
2023-04-10T04:11:09.242Z,8.20
2023-04-10T04:13:58.845Z,8.18
2023-04-10T04:16:48.989Z,8.32
2023-04-10T04:19:31.125Z,8.88
2023-04-10T04:22:21.669Z,7.20
2023-04-10T04:25:11.619Z,8.40
2023-04-10T04:27:58.731Z,7.95
2023-04-10T04:30:36.360Z,8.05
2023-04-10T04:33:22.022Z,8.10
2023-04-10T04:36:24.685Z,7.97
2023-04-10T04:39:04.625Z,8.50
2023-04-10T04:41:50.601Z,8.80
2023-04-10T04:44:53.265Z,14.18
2023-04-10T04:47:43.467Z,8.90
2023-04-10T04:50:21.466Z,8.33
2023-04-10T04:53:00.490Z,12.00
2023-04-10T04:55:54.757Z,9.50
2023-04-10T04:58:40.735Z,9.07
2023-04-10T05:01:31.482Z,9.00
2023-04-10T05:04:31.221Z,8.67
2023-04-10T05:07:18.818Z,10.38
2023-04-10T05:09:57.644Z,10.85
2023-04-10T05:12:51.087Z,8.90
2023-04-10T05:15:41.796Z,9.65
2023-04-10T05:18:33.541Z,10.30
2023-04-10T05:21:12.014Z,10.40
2023-04-10T05:23:57.800Z,9.85
2023-04-10T05:26:34.831Z,9.23
2023-04-10T05:29:25.392Z,8.45
2023-04-10T05:32:01.685Z,9.50
2023-04-10T05:34:47.634Z,9.23
2023-04-10T05:37:50.361Z,10.77
2023-04-10T05:40:45.878Z,11.15
2023-04-10T05:43:45.609Z,10.77
2023-04-10T05:46:22.628Z,11.23
2023-04-10T05:49:10.337Z,9.75
2023-04-10T05:51:53.541Z,9.82
2023-04-10T05:54:29.529Z,10.48
2023-04-10T05:57:15.379Z,10.27
2023-04-10T06:00:03.070Z,12.70
2023-04-10T06:02:59.923Z,10.30
2023-04-10T06:05:29.290Z,10.52
2023-04-10T06:08:01.255Z,11.27
2023-04-10T06:10:31.124Z,11.23
2023-04-10T06:12:58.639Z,8.50
2023-04-10T06:15:26.769Z,11.25
2023-04-10T06:17:54.231Z,9.73
2023-04-10T06:20:21.753Z,8.90
2023-04-10T06:22:50.880Z,8.98
2023-04-10T06:25:18.218Z,10.77
2023-04-10T06:27:45.617Z,8.40
2023-04-10T06:30:13.586Z,11.70
2023-04-10T06:32:41.815Z,7.80
2023-04-10T06:35:09.340Z,11.15
2023-04-10T06:37:36.658Z,8.97
2023-04-10T06:40:05.909Z,11.02
2023-04-10T06:42:33.241Z,9.35
2023-04-10T06:45:07.824Z,9.70
2023-04-10T06:47:35.453Z,9.90
2023-04-10T06:50:02.727Z,8.97
2023-04-10T06:52:29.996Z,11.23
2023-04-10T06:54:57.330Z,8.73
2023-04-10T06:57:24.660Z,10.07
2023-04-10T06:59:51.948Z,8.88
2023-04-10T07:02:19.302Z,8.10
2023-04-10T07:04:46.853Z,9.45
2023-04-10T07:07:15.894Z,8.88
2023-04-10T07:09:43.776Z,9.15
2023-04-10T07:12:11.097Z,10.25
2023-04-10T07:14:38.335Z,8.83
2023-04-10T07:17:05.614Z,10.85
2023-04-10T07:19:32.838Z,8.38
2023-04-10T07:22:00.641Z,8.32
2023-04-10T07:24:28.114Z,10.00
2023-04-10T07:26:57.225Z,8.47
2023-04-10T07:29:24.576Z,8.23
2023-04-10T07:31:51.973Z,10.05
2023-04-10T07:34:19.359Z,8.93
2023-04-10T07:36:47.216Z,8.98
2023-04-10T07:39:14.536Z,8.83
2023-04-10T07:41:42.010Z,8.93
2023-04-10T07:44:09.334Z,8.98
2023-04-10T07:46:36.809Z,8.07
2023-04-10T07:49:05.633Z,8.32
2023-04-10T07:51:34.055Z,9.13
2023-04-10T07:54:01.392Z,8.48
2023-04-10T07:56:31.392Z,10.25
2023-04-10T07:59:01.028Z,9.50
2023-04-10T08:01:28.832Z,11.52
2023-04-10T08:03:56.991Z,8.40
2023-04-10T08:06:24.501Z,10.35
2023-04-10T08:08:54.969Z,7.90
2023-04-10T08:11:24.793Z,7.97
2023-04-10T08:13:56.545Z,7.78
2023-04-10T08:16:24.953Z,10.27
2023-04-10T08:18:53.162Z,8.15
2023-04-10T08:21:21.853Z,8.07
2023-04-10T08:23:51.480Z,8.48
2023-04-10T08:26:19.659Z,7.82
2023-04-10T08:28:49.334Z,7.53
2023-04-10T08:31:16.660Z,7.00
2023-04-10T08:33:44.076Z,7.95
2023-04-10T08:36:12.671Z,7.15
2023-04-10T08:38:40.202Z,8.23
2023-04-10T08:41:07.570Z,7.10
2023-04-10T08:43:35.513Z,7.38
2023-04-10T08:46:03.043Z,8.20
2023-04-10T08:48:32.821Z,7.75
2023-04-10T08:51:02.106Z,7.18
2023-04-10T08:53:31.925Z,7.27
2023-04-10T08:56:00.245Z,7.15
2023-04-10T08:58:27.824Z,7.93
2023-04-10T09:00:55.225Z,8.30
2023-04-10T09:03:23.333Z,7.03
2023-04-10T09:05:50.741Z,10.47
2023-04-10T09:08:17.972Z,9.38
2023-04-10T09:10:46.030Z,9.40
2023-04-10T09:13:13.297Z,8.05
2023-04-10T09:16:01.365Z,7.78
2023-04-10T09:18:47.654Z,7.60
2023-04-10T09:21:18.916Z,7.70
2023-04-10T09:23:46.612Z,10.13
2023-04-10T09:26:43.053Z,6.87
2023-04-10T09:29:12.344Z,7.78
2023-04-10T09:31:40.295Z,8.50
2023-04-10T09:34:21.664Z,7.32
2023-04-10T09:36:56.719Z,7.43
2023-04-10T09:39:33.971Z,7.43
2023-04-10T09:42:01.304Z,7.80
2023-04-10T09:44:31.016Z,8.90
2023-04-10T09:47:18.178Z,8.48
2023-04-10T09:49:49.610Z,6.40
2023-04-10T09:52:27.219Z,8.23
2023-04-10T09:54:57.244Z,7.88
2023-04-10T09:57:25.796Z,6.63
2023-04-10T09:59:53.940Z,9.20
2023-04-10T10:02:22.828Z,10.47
2023-04-10T10:04:50.677Z,7.55
2023-04-10T10:07:19.303Z,9.35
2023-04-10T10:09:47.409Z,7.82
2023-04-10T10:12:20.040Z,6.60
2023-04-10T10:14:56.025Z,7.13
2023-04-10T10:17:25.743Z,8.27
2023-04-10T10:20:19.487Z,9.73
2023-04-10T10:22:47.277Z,8.57
2023-04-10T10:25:14.611Z,7.45
2023-04-10T10:27:42.639Z,7.20
2023-04-10T10:30:27.967Z,8.10
2023-04-10T10:32:57.135Z,7.50
2023-04-10T10:35:27.272Z,7.72
2023-04-10T10:37:56.159Z,6.32
2023-04-10T10:40:32.783Z,8.37
2023-04-10T10:43:12.984Z,8.02
2023-04-10T10:46:03.674Z,7.72
2023-04-10T10:48:31.021Z,8.07
2023-04-10T10:50:59.699Z,6.93
2023-04-10T10:53:45.930Z,5.60
2023-04-10T10:56:19.345Z,6.70
2023-04-10T10:58:54.592Z,6.70
2023-04-10T11:01:22.426Z,7.15
2023-04-10T11:03:50.339Z,6.32
2023-04-10T11:06:21.526Z,6.03
2023-04-10T11:08:49.580Z,6.57
2023-04-10T11:11:24.148Z,6.03
2023-04-10T11:13:57.512Z,6.00
2023-04-10T11:16:31.877Z,6.00
2023-04-10T11:21:58.462Z,5.70
2023-04-10T11:24:25.781Z,6.40
2023-04-10T11:26:53.019Z,5.28
2023-04-10T11:29:29.340Z,5.68
2023-04-10T11:31:57.913Z,6.13
2023-04-10T11:34:27.029Z,5.88
2023-04-10T11:36:54.758Z,5.40
2023-04-10T11:39:22.213Z,5.85
2023-04-10T11:41:50.476Z,5.82
2023-04-10T11:44:40.911Z,4.07
2023-04-10T11:47:13.140Z,5.07
2023-04-10T11:49:40.632Z,5.15
2023-04-10T11:52:07.937Z,6.20
2023-04-10T11:54:37.657Z,6.60
2023-04-10T11:57:05.007Z,5.80
2023-04-10T11:59:33.495Z,5.68
2023-04-10T12:02:06.396Z,5.53
2023-04-10T12:04:34.409Z,5.57
2023-04-10T12:07:01.890Z,5.43
2023-04-10T12:09:29.361Z,5.47
2023-04-10T12:12:00.703Z,5.03
2023-04-10T12:14:32.761Z,5.72
2023-04-10T12:17:00.428Z,5.30
2023-04-10T12:19:28.125Z,5.85
2023-04-10T12:21:56.340Z,3.77
2023-04-10T12:24:43.345Z,4.70
2023-04-10T12:27:36.618Z,5.43
2023-04-10T12:30:08.446Z,5.38
2023-04-10T12:32:35.793Z,5.20
2023-04-10T12:35:03.280Z,4.53
2023-04-10T12:37:49.394Z,4.60
2023-04-10T12:40:16.698Z,4.28
2023-04-10T12:42:44.681Z,4.20
2023-04-10T12:45:14.086Z,4.50
2023-04-10T12:47:46.982Z,4.67
2023-04-10T12:50:15.103Z,4.60
2023-04-10T12:52:43.767Z,8.55
2023-04-10T12:55:12.411Z,4.65
2023-04-10T12:57:40.121Z,4.60
2023-04-10T13:00:09.801Z,4.73
2023-04-10T13:02:38.082Z,4.47
2023-04-10T13:05:06.111Z,4.13
2023-04-10T13:07:33.691Z,4.72
2023-04-10T13:10:01.510Z,4.30
2023-04-10T13:12:30.171Z,3.97
2023-04-10T13:14:57.636Z,3.30
2023-04-10T13:17:25.890Z,5.05
2023-04-10T13:19:53.186Z,3.90
2023-04-10T13:22:20.758Z,4.30
2023-04-10T13:24:48.252Z,5.47
2023-04-10T13:27:16.089Z,3.83
2023-04-10T13:29:43.819Z,3.97
2023-04-10T13:32:11.161Z,4.80
2023-04-10T13:34:38.501Z,4.35
2023-04-10T13:37:05.997Z,4.93
2023-04-10T13:39:33.345Z,5.25
2023-04-10T13:42:02.166Z,4.85
2023-04-10T13:44:29.922Z,5.85
2023-04-10T13:46:58.266Z,4.78
2023-04-10T13:49:25.700Z,4.20
2023-04-10T13:51:53.025Z,5.05
2023-04-10T13:54:20.243Z,4.28
2023-04-10T13:56:48.129Z,4.38
2023-04-10T13:59:15.497Z,5.22
2023-04-10T14:01:42.830Z,4.80
2023-04-10T14:04:10.130Z,4.90
2023-04-10T14:06:37.377Z,5.72
2023-04-10T14:09:04.858Z,4.57
2023-04-10T14:11:32.154Z,4.68
2023-04-10T14:13:59.386Z,4.97
2023-04-10T14:16:26.688Z,5.85
2023-04-10T14:18:54.756Z,6.43
2023-04-10T14:21:22.279Z,6.65
2023-04-10T14:23:49.498Z,5.45
2023-04-10T14:26:16.794Z,5.50
2023-04-10T14:28:44.168Z,5.20
2023-04-10T14:31:12.540Z,6.38
2023-04-10T14:33:40.015Z,4.70
2023-04-10T14:36:07.592Z,8.00
2023-04-10T14:38:38.057Z,5.07
2023-04-10T14:41:05.500Z,5.28
2023-04-10T14:43:32.779Z,6.40
2023-04-10T14:46:00.121Z,6.50
2023-04-10T14:48:27.626Z,7.18
2023-04-10T14:50:56.752Z,6.00
2023-04-10T14:53:24.336Z,8.02
2023-04-10T14:55:51.652Z,7.30
2023-04-10T14:58:18.924Z,5.35
2023-04-10T15:00:46.192Z,5.47
2023-04-10T15:03:13.558Z,5.87
2023-04-10T15:05:41.190Z,6.53
2023-04-10T15:08:08.556Z,4.82
2023-04-10T15:10:35.837Z,5.18
2023-04-10T15:13:03.320Z,7.47
2023-04-10T15:15:30.662Z,6.37
2023-04-10T15:17:57.946Z,6.35
2023-04-10T15:20:25.228Z,5.35
2023-04-10T15:22:52.601Z,3.95
2023-04-10T15:25:19.895Z,6.25
2023-04-10T15:27:47.181Z,8.23
2023-04-10T15:30:14.610Z,5.90
2023-04-10T15:32:41.965Z,6.00
2023-04-10T15:35:09.412Z,6.25
2023-04-10T15:37:36.928Z,5.10
2023-04-10T15:40:07.572Z,6.63
2023-04-10T15:42:35.291Z,7.40
2023-04-10T15:45:03.148Z,6.53
2023-04-10T15:47:30.865Z,5.82
2023-04-10T15:49:58.356Z,6.65
2023-04-10T15:52:25.714Z,5.63
2023-04-10T15:54:53.078Z,7.22
2023-04-10T15:57:20.415Z,6.50
2023-04-10T15:59:47.675Z,5.72
2023-04-10T16:02:15.379Z,6.80
2023-04-10T16:04:42.789Z,5.63
2023-04-10T16:07:10.101Z,7.22
2023-04-10T16:09:37.442Z,6.28
2023-04-10T16:12:04.862Z,9.60
2023-04-10T16:14:32.735Z,7.22
2023-04-10T16:17:00.101Z,7.33
2023-04-10T16:19:31.137Z,8.50
2023-04-10T16:21:58.533Z,7.80
2023-04-10T16:24:25.898Z,8.23
2023-04-10T16:26:54.202Z,7.90
2023-04-10T16:29:21.551Z,7.17
2023-04-10T16:31:48.833Z,7.13
2023-04-10T16:34:16.149Z,7.63
2023-04-10T16:36:43.371Z,8.30
2023-04-10T16:39:10.629Z,8.52
2023-04-10T16:41:37.918Z,9.13
2023-04-10T16:44:05.185Z,7.43
2023-04-10T16:46:33.173Z,8.75
2023-04-10T16:49:01.587Z,9.18
2023-04-10T16:51:28.921Z,8.90
2023-04-10T16:53:56.162Z,8.27
2023-04-10T16:56:23.554Z,8.05
2023-04-10T16:58:50.884Z,8.45
2023-04-10T17:01:19.584Z,9.13
2023-04-10T17:03:47.877Z,7.57
2023-04-10T17:06:16.278Z,6.83
2023-04-10T17:08:44.143Z,7.75
2023-04-10T17:11:14.855Z,6.82
2023-04-10T17:13:42.581Z,6.38
2023-04-10T17:16:10.702Z,5.43
2023-04-10T17:18:38.054Z,8.20
2023-04-10T17:21:05.475Z,6.57
2023-04-10T17:23:32.819Z,8.82
2023-04-10T17:26:00.256Z,8.05
2023-04-10T17:28:27.516Z,8.25
2023-04-10T17:30:54.830Z,8.37
2023-04-10T17:33:23.556Z,8.00
2023-04-10T17:35:51.985Z,12.10
2023-04-10T17:38:19.349Z,8.48
2023-04-10T17:40:46.625Z,7.60
2023-04-10T17:43:13.852Z,9.33
2023-04-10T17:45:41.178Z,9.45
2023-04-10T17:48:08.823Z,6.53
2023-04-10T17:50:36.201Z,6.78
2023-04-10T17:53:03.481Z,5.90
2023-04-10T17:55:30.868Z,4.60
2023-04-10T17:57:59.159Z,5.97
2023-04-10T18:00:26.523Z,6.15
2023-04-10T18:03:00.977Z,5.25
2023-04-10T18:05:28.821Z,4.95
2023-04-10T18:07:56.142Z,6.47
2023-04-10T18:10:23.744Z,7.88
2023-04-10T18:12:51.022Z,4.65
2023-04-10T18:15:18.691Z,6.35
2023-04-10T18:17:46.114Z,5.22
2023-04-10T18:20:13.447Z,5.50
2023-04-10T18:22:40.832Z,7.25
2023-04-10T18:25:08.519Z,5.97
2023-04-10T18:27:36.478Z,5.03
2023-04-10T18:30:03.874Z,6.28
2023-04-10T18:32:31.221Z,7.03
2023-04-10T18:34:59.926Z,7.32
2023-04-10T18:37:27.232Z,5.97
2023-04-10T18:39:56.900Z,5.28
2023-04-10T18:42:27.788Z,6.22
2023-04-10T18:44:55.111Z,7.27
2023-04-10T18:47:22.474Z,7.90
2023-04-10T18:49:49.960Z,6.18
2023-04-10T18:52:17.289Z,4.60
2023-04-10T18:54:45.461Z,4.85
2023-04-10T18:57:13.927Z,7.07
2023-04-10T18:59:41.277Z,7.30
2023-04-10T19:02:09.056Z,5.38
2023-04-10T19:04:36.513Z,4.95
2023-04-10T19:07:03.950Z,7.13
2023-04-10T19:09:31.256Z,6.57
2023-04-10T19:11:58.845Z,6.38
2023-04-10T19:14:26.155Z,7.05
2023-04-10T19:16:53.450Z,9.20
2023-04-10T19:19:20.780Z,5.88
2023-04-10T19:21:48.223Z,5.20
2023-04-10T19:24:15.517Z,8.38
2023-04-10T19:26:42.840Z,6.97
2023-04-10T19:29:10.782Z,7.45
2023-04-10T19:31:38.139Z,7.85
2023-04-10T19:34:09.326Z,5.47
2023-04-10T19:36:36.586Z,7.82
2023-04-10T19:39:04.339Z,11.93
2023-04-10T19:41:31.694Z,9.75
2023-04-10T19:43:59.368Z,6.97
2023-04-10T19:46:26.903Z,9.70
2023-04-10T19:48:54.895Z,6.90
2023-04-10T19:51:22.184Z,11.20
2023-04-10T19:53:49.598Z,8.98
2023-04-10T19:56:17.135Z,8.80
2023-04-10T19:58:46.981Z,11.73
2023-04-10T20:01:14.579Z,7.97
2023-04-10T20:03:42.210Z,11.27
2023-04-10T20:06:10.352Z,8.35
2023-04-10T20:08:37.771Z,6.75
2023-04-10T20:11:06.389Z,10.27
2023-04-10T20:13:34.889Z,7.07
2023-04-10T20:16:02.745Z,9.05
2023-04-10T20:18:31.635Z,10.70
2023-04-10T20:20:59.008Z,10.15
2023-04-10T20:23:26.367Z,9.55
2023-04-10T20:25:53.658Z,8.63
2023-04-10T20:28:20.969Z,8.85
2023-04-10T20:30:48.253Z,10.27
2023-04-10T20:33:15.573Z,11.48
2023-04-10T20:35:42.811Z,9.23
2023-04-10T20:38:10.179Z,9.88
2023-04-10T20:40:37.457Z,6.90
2023-04-10T20:43:10.933Z,9.25
2023-04-10T20:45:41.533Z,10.50
2023-04-10T20:48:09.348Z,13.80
2023-04-10T20:50:39.715Z,11.80
2023-04-10T20:53:06.964Z,9.45
2023-04-10T20:55:38.535Z,10.60
2023-04-10T20:58:06.223Z,11.00
2023-04-10T21:00:33.546Z,9.93
2023-04-10T21:03:01.059Z,12.73
2023-04-10T21:05:28.485Z,8.20
2023-04-10T21:07:55.922Z,13.65
2023-04-10T21:10:23.268Z,13.20
2023-04-10T21:12:50.583Z,16.90
2023-04-10T21:15:17.820Z,12.55
2023-04-10T21:17:45.232Z,11.02
2023-04-10T21:20:12.770Z,11.07
2023-04-10T21:22:39.994Z,16.35
2023-04-10T21:25:07.386Z,11.57
2023-04-10T21:27:34.667Z,15.32
2023-04-10T21:30:01.954Z,9.63
2023-04-10T21:32:29.329Z,16.58
2023-04-10T21:34:56.625Z,12.23
2023-04-10T21:37:24.624Z,15.17
2023-04-10T21:39:51.914Z,11.77
2023-04-10T21:42:19.760Z,14.60
2023-04-10T21:44:47.012Z,12.52
2023-04-10T21:47:14.248Z,14.18
2023-04-10T21:49:41.541Z,13.77
2023-04-10T21:52:09.664Z,11.35
2023-04-10T21:54:36.904Z,15.77
2023-04-10T21:57:04.197Z,11.02
2023-04-10T21:59:32.162Z,14.45
2023-04-10T22:01:59.438Z,13.88
2023-04-10T22:04:27.194Z,13.85
2023-04-10T22:06:54.453Z,12.82
2023-04-10T22:09:22.640Z,8.60
2023-04-10T22:11:49.939Z,8.25
2023-04-10T22:14:19.344Z,4.20
2023-04-10T22:16:48.197Z,5.63
2023-04-10T22:19:15.514Z,7.38
2023-04-10T22:21:42.821Z,6.80
2023-04-10T22:24:10.294Z,5.55
2023-04-10T22:26:37.544Z,3.40
2023-04-10T22:29:04.966Z,3.60
2023-04-10T22:31:32.296Z,3.83
2023-04-10T22:33:59.560Z,4.72
2023-04-10T22:36:32.527Z,4.22
2023-04-10T22:38:59.818Z,6.82
2023-04-10T22:41:27.083Z,6.45
2023-04-10T22:43:54.333Z,7.43
2023-04-10T22:46:21.717Z,5.18
2023-04-10T22:48:49.082Z,6.43
2023-04-10T22:51:16.361Z,4.28
2023-04-10T22:53:43.630Z,5.53
2023-04-10T22:56:11.335Z,5.53
2023-04-10T22:58:39.726Z,6.45
2023-04-10T23:01:08.401Z,6.28
2023-04-10T23:03:35.958Z,6.10
2023-04-10T23:06:03.304Z,3.33
2023-04-10T23:08:30.631Z,9.40
2023-04-10T23:10:57.944Z,4.32
2023-04-10T23:13:25.613Z,8.15
2023-04-10T23:15:53.778Z,4.13
2023-04-10T23:18:21.160Z,9.35
2023-04-10T23:20:48.673Z,7.22
2023-04-10T23:23:16.451Z,9.85
2023-04-10T23:25:43.727Z,15.30
2023-04-10T23:28:11.148Z,21.00
2023-04-10T23:30:38.488Z,15.45
2023-04-10T23:33:05.797Z,15.40
2023-04-10T23:35:33.163Z,21.77
2023-04-10T23:38:00.970Z,19.42
2023-04-10T23:40:28.224Z,18.73
2023-04-10T23:42:55.544Z,19.65
2023-04-10T23:45:22.749Z,27.98
2023-04-10T23:47:51.061Z,27.10
2023-04-10T23:50:18.605Z,26.35
2023-04-10T23:52:52.256Z,24.88
2023-04-10T23:55:19.999Z,28.15
2023-04-10T23:57:47.267Z,23.08
